createdAt,value
2018-08-08T00:02:17.658Z,20.30
2018-08-08T00:04:48.019Z,20.30
2018-08-08T00:07:18.428Z,20.30
2018-08-08T00:09:48.691Z,20.20
2018-08-08T00:12:19.271Z,20.20
2018-08-08T00:14:49.665Z,20.20
2018-08-08T00:17:20.134Z,20.10
2018-08-08T00:19:50.451Z,20.10
2018-08-08T00:22:20.851Z,20.10
2018-08-08T00:24:51.247Z,20.00
2018-08-08T00:27:21.687Z,20.10
2018-08-08T00:29:51.920Z,20.10
2018-08-08T00:32:22.163Z,20.10
2018-08-08T00:34:59.237Z,20.00
2018-08-08T00:37:29.802Z,20.00
2018-08-08T00:40:00.156Z,20.00
2018-08-08T00:42:30.504Z,20.10
2018-08-08T00:45:01.050Z,20.00
2018-08-08T00:47:31.494Z,20.00
2018-08-08T00:50:02.006Z,20.00
2018-08-08T00:52:32.312Z,20.00
2018-08-08T00:55:02.755Z,20.00
2018-08-08T00:57:33.283Z,20.00
2018-08-08T01:00:03.952Z,20.00
2018-08-08T01:02:34.441Z,19.90
2018-08-08T01:05:05.784Z,19.90
2018-08-08T01:07:36.425Z,20.00
2018-08-08T01:10:07.824Z,19.90
2018-08-08T01:12:38.345Z,19.80
2018-08-08T01:15:13.093Z,19.80
2018-08-08T01:17:43.475Z,19.80
2018-08-08T01:20:16.582Z,19.80
2018-08-08T01:22:47.081Z,19.80
2018-08-08T01:25:18.334Z,19.80
2018-08-08T01:27:48.791Z,19.70
2018-08-08T01:30:21.395Z,19.70
2018-08-08T01:32:51.954Z,19.70
2018-08-08T01:35:22.379Z,19.60
2018-08-08T01:37:52.956Z,19.60
2018-08-08T01:40:23.255Z,19.60
2018-08-08T01:42:53.557Z,19.60
2018-08-08T01:45:24.097Z,19.60
2018-08-08T01:47:54.559Z,19.60
2018-08-08T01:50:24.839Z,19.60
2018-08-08T01:52:55.389Z,19.60
2018-08-08T01:55:25.786Z,19.60
2018-08-08T01:57:56.266Z,19.60
2018-08-08T02:00:26.514Z,19.60
2018-08-08T02:02:56.976Z,19.60
2018-08-08T02:05:27.573Z,19.50
2018-08-08T02:07:58.168Z,19.50
2018-08-08T02:10:28.900Z,19.50
2018-08-08T02:13:05.979Z,19.40
2018-08-08T02:15:36.445Z,19.50
2018-08-08T02:18:07.036Z,19.50
2018-08-08T02:20:37.353Z,19.40
2018-08-08T02:23:07.638Z,19.40
2018-08-08T02:25:38.069Z,19.40
2018-08-08T02:28:08.561Z,19.40
2018-08-08T02:30:38.869Z,19.40
2018-08-08T02:33:09.199Z,19.40
2018-08-08T02:35:39.591Z,19.40
2018-08-08T02:38:10.069Z,19.40
2018-08-08T02:40:40.430Z,19.50
2018-08-08T02:43:10.915Z,19.40
2018-08-08T02:45:41.172Z,19.40
2018-08-08T02:48:11.648Z,19.30
2018-08-08T02:50:42.025Z,19.30
2018-08-08T02:53:12.516Z,19.30
2018-08-08T02:55:45.849Z,19.30
2018-08-08T02:58:16.342Z,19.30
2018-08-08T03:00:46.641Z,19.30
2018-08-08T03:03:16.981Z,19.30
2018-08-08T03:05:47.451Z,19.30
2018-08-08T03:08:18.017Z,19.30
2018-08-08T03:10:48.644Z,19.30
2018-08-08T03:13:19.102Z,19.30
2018-08-08T03:15:49.696Z,19.30
2018-08-08T03:18:20.124Z,19.20
2018-08-08T03:20:50.593Z,19.20
2018-08-08T03:23:21.322Z,19.20
2018-08-08T03:25:51.641Z,19.20
2018-08-08T03:28:22.071Z,19.10
2018-08-08T03:30:52.428Z,19.10
2018-08-08T03:33:22.903Z,19.10
2018-08-08T03:35:53.316Z,19.10
2018-08-08T03:38:24.405Z,19.10
2018-08-08T03:40:55.002Z,19.10
2018-08-08T03:43:25.350Z,19.10
2018-08-08T03:45:55.862Z,19.10
2018-08-08T03:48:26.270Z,19.20
2018-08-08T03:50:56.803Z,19.10
2018-08-08T03:53:27.300Z,19.10
2018-08-08T03:55:58.318Z,19.10
2018-08-08T03:58:28.759Z,19.10
2018-08-08T04:00:59.146Z,19.10
2018-08-08T04:03:29.590Z,19.20
2018-08-08T04:06:00.200Z,19.10
2018-08-08T04:08:30.627Z,19.10
2018-08-08T04:11:01.288Z,19.20
2018-08-08T04:13:31.508Z,19.20
2018-08-08T04:16:01.903Z,19.20
2018-08-08T04:18:32.676Z,19.20
2018-08-08T04:21:03.345Z,19.30
2018-08-08T04:23:34.393Z,19.30
2018-08-08T04:26:05.099Z,19.30
2018-08-08T04:28:35.623Z,19.30
2018-08-08T04:31:06.185Z,19.30
2018-08-08T04:33:36.745Z,19.30
2018-08-08T04:36:07.011Z,19.30
2018-08-08T04:38:37.416Z,19.30
2018-08-08T04:41:07.917Z,19.40
2018-08-08T04:43:38.173Z,19.40
2018-08-08T04:46:09.492Z,19.40
2018-08-08T04:48:39.977Z,19.40
2018-08-08T04:51:13.440Z,19.50
2018-08-08T04:53:43.911Z,19.50
2018-08-08T04:56:14.399Z,19.50
2018-08-08T04:58:44.927Z,19.60
2018-08-08T05:01:15.381Z,19.60
2018-08-08T05:03:45.640Z,19.70
2018-08-08T05:06:16.103Z,19.80
2018-08-08T05:08:46.423Z,19.80
2018-08-08T05:11:16.937Z,19.80
2018-08-08T05:13:47.338Z,19.80
2018-08-08T05:16:17.781Z,19.80
2018-08-08T05:18:48.235Z,19.80
2018-08-08T05:21:18.662Z,19.90
2018-08-08T05:23:48.931Z,19.90
2018-08-08T05:26:19.474Z,19.90
2018-08-08T05:28:50.027Z,20.10
2018-08-08T05:31:20.243Z,20.10
2018-08-08T05:33:50.642Z,20.20
2018-08-08T05:36:21.037Z,20.20
2018-08-08T05:38:51.514Z,20.30
2018-08-08T05:41:22.084Z,20.30
2018-08-08T05:43:52.480Z,20.40
2018-08-08T05:46:22.945Z,20.40
2018-08-08T05:48:53.652Z,20.50
2018-08-08T05:51:24.183Z,20.50
2018-08-08T05:53:54.578Z,20.60
2018-08-08T05:56:25.039Z,20.60
2018-08-08T05:58:55.412Z,20.60
2018-08-08T06:01:25.815Z,20.60
2018-08-08T06:03:56.739Z,20.60
2018-08-08T06:06:30.994Z,20.70
2018-08-08T06:09:02.867Z,20.80
2018-08-08T06:11:33.340Z,20.80
2018-08-08T06:14:03.659Z,20.80
2018-08-08T06:16:34.115Z,20.90
2018-08-08T06:19:04.600Z,20.90
2018-08-08T06:21:35.281Z,21.00
2018-08-08T06:24:05.809Z,21.10
2018-08-08T06:26:36.280Z,21.00
2018-08-08T06:29:06.717Z,21.10
2018-08-08T06:31:37.070Z,21.10
2018-08-08T06:34:07.530Z,21.10
2018-08-08T06:36:37.845Z,21.20
2018-08-08T06:39:12.975Z,21.20
2018-08-08T06:41:44.199Z,21.30
2018-08-08T06:44:14.649Z,21.30
2018-08-08T06:46:45.352Z,21.40
2018-08-08T06:49:15.854Z,21.50
2018-08-08T06:51:46.133Z,21.60
2018-08-08T06:54:16.496Z,21.60
2018-08-08T06:56:47.042Z,21.60
2018-08-08T06:59:17.485Z,21.70
2018-08-08T07:01:47.848Z,21.90
2018-08-08T07:04:18.189Z,21.90
2018-08-08T07:06:48.644Z,21.90
2018-08-08T07:09:19.173Z,22.00
2018-08-08T07:11:49.865Z,22.10
2018-08-08T07:14:20.282Z,22.10
2018-08-08T07:16:50.611Z,22.20
2018-08-08T07:19:21.267Z,22.30
2018-08-08T07:21:51.787Z,22.30
2018-08-08T07:24:21.966Z,22.40
2018-08-08T07:26:52.192Z,22.50
2018-08-08T07:29:22.629Z,22.50
2018-08-08T07:31:53.392Z,22.60
2018-08-08T07:34:23.814Z,22.70
2018-08-08T07:36:53.941Z,22.80
2018-08-08T07:39:24.154Z,22.90
2018-08-08T07:41:54.437Z,22.90
2018-08-08T07:44:24.716Z,23.00
2018-08-08T07:46:55.205Z,23.10
2018-08-08T07:49:25.567Z,23.10
2018-08-08T07:51:55.849Z,23.20
2018-08-08T07:54:26.285Z,23.30
2018-08-08T07:56:57.193Z,23.40
2018-08-08T07:59:27.542Z,23.50
2018-08-08T08:01:57.838Z,23.70
2018-08-08T08:04:28.025Z,23.80
2018-08-08T08:06:58.341Z,24.00
2018-08-08T08:09:28.561Z,24.10
2018-08-08T08:11:58.819Z,24.20
2018-08-08T08:14:28.986Z,24.40
2018-08-08T08:16:59.366Z,24.50
2018-08-08T08:19:29.491Z,24.60
2018-08-08T08:22:00.090Z,24.70
2018-08-08T08:25:39.648Z,24.70
2018-08-08T08:28:09.898Z,24.90
2018-08-08T08:30:40.411Z,25.10
2018-08-08T08:33:11.405Z,25.20
2018-08-08T08:35:41.471Z,25.40
2018-08-08T08:38:11.983Z,25.50
2018-08-08T08:40:42.218Z,25.60
2018-08-08T08:43:12.651Z,25.80
2018-08-08T08:45:42.885Z,25.90
2018-08-08T08:48:14.262Z,26.10
2018-08-08T08:50:44.400Z,26.20
2018-08-08T08:53:17.663Z,26.30
2018-08-08T08:55:48.061Z,26.40
2018-08-08T08:58:18.267Z,26.50
2018-08-08T09:00:48.596Z,26.60
2018-08-08T09:03:18.870Z,26.70
2018-08-08T09:05:49.103Z,26.90
2018-08-08T09:08:19.378Z,27.10
2018-08-08T09:10:50.142Z,27.30
2018-08-08T09:13:20.839Z,27.30
2018-08-08T09:15:50.891Z,27.40
2018-08-08T09:18:21.086Z,27.60
2018-08-08T09:20:51.328Z,27.70
2018-08-08T09:23:21.368Z,27.90
2018-08-08T09:25:51.478Z,27.90
2018-08-08T09:28:22.004Z,27.90
2018-08-08T09:30:53.040Z,28.10
2018-08-08T09:33:28.452Z,28.20
2018-08-08T09:35:58.710Z,28.30
2018-08-08T09:38:29.642Z,28.40
2018-08-08T09:41:00.603Z,28.70
2018-08-08T09:43:31.049Z,28.90
2018-08-08T09:46:01.431Z,29.20
2018-08-08T09:48:32.656Z,29.40
2018-08-08T09:51:03.159Z,29.60
2018-08-08T09:53:33.691Z,29.80
2018-08-08T09:56:04.258Z,30.00
2018-08-08T09:58:34.759Z,30.30
2018-08-08T10:01:10.042Z,30.50
2018-08-08T10:03:45.312Z,30.50
2018-08-08T10:06:15.679Z,30.70
2018-08-08T10:08:46.137Z,30.80
2018-08-08T10:11:16.562Z,31.10
2018-08-08T10:13:47.311Z,31.30
2018-08-08T10:16:17.684Z,31.30
2018-08-08T10:18:48.074Z,31.50
2018-08-08T10:21:18.432Z,31.70
2018-08-08T10:23:49.028Z,32.10
2018-08-08T10:26:19.410Z,32.40
2018-08-08T10:28:50.472Z,32.40
2018-08-08T10:31:21.221Z,32.50
2018-08-08T10:33:51.849Z,32.50
2018-08-08T10:36:22.239Z,32.60
2018-08-08T10:38:52.776Z,32.70
2018-08-08T10:41:23.123Z,32.80
2018-08-08T10:43:53.664Z,33.10
2018-08-08T10:46:23.956Z,33.50
2018-08-08T10:48:54.541Z,33.80
2018-08-08T10:51:25.245Z,34.10
2018-08-08T10:53:55.675Z,34.10
2018-08-08T10:56:26.407Z,34.10
2018-08-08T10:58:56.846Z,34.40
2018-08-08T11:01:27.657Z,34.80
2018-08-08T11:03:58.084Z,35.20
2018-08-08T11:06:28.603Z,35.50
2018-08-08T11:08:59.276Z,35.40
2018-08-08T11:11:29.458Z,35.40
2018-08-08T11:13:59.912Z,35.70
2018-08-08T11:16:30.401Z,35.90
2018-08-08T11:19:00.963Z,36.10
2018-08-08T11:21:31.383Z,36.50
2018-08-08T11:24:01.959Z,36.80
2018-08-08T11:26:32.609Z,36.90
2018-08-08T11:29:03.072Z,37.00
2018-08-08T11:31:33.603Z,36.80
2018-08-08T11:34:03.923Z,36.60
2018-08-08T11:36:34.636Z,36.70
2018-08-08T11:39:06.906Z,36.30
2018-08-08T11:41:37.286Z,36.30
2018-08-08T11:44:07.694Z,36.20
2018-08-08T11:46:38.024Z,36.30
2018-08-08T11:49:08.503Z,36.50
2018-08-08T11:51:38.878Z,36.80
2018-08-08T11:54:09.259Z,37.00
2018-08-08T11:56:39.561Z,36.90
2018-08-08T11:59:10.071Z,37.10
2018-08-08T12:01:40.328Z,37.30
2018-08-08T12:04:10.763Z,37.50
2018-08-08T12:06:41.165Z,37.60
2018-08-08T12:09:11.752Z,38.10
2018-08-08T12:11:42.278Z,38.20
2018-08-08T12:14:12.826Z,38.70
2018-08-08T12:16:43.342Z,39.10
2018-08-08T12:19:13.964Z,39.40
2018-08-08T12:21:44.185Z,39.50
2018-08-08T12:24:14.861Z,39.30
2018-08-08T12:26:45.315Z,39.30
2018-08-08T12:29:16.796Z,39.10
2018-08-08T12:31:47.217Z,38.70
2018-08-08T12:34:17.658Z,38.10
2018-08-08T12:36:48.031Z,37.70
2018-08-08T12:39:19.066Z,37.70
2018-08-08T12:41:49.523Z,38.20
2018-08-08T12:44:20.062Z,38.90
2018-08-08T12:46:50.585Z,39.60
2018-08-08T12:49:21.073Z,40.00
2018-08-08T12:51:51.357Z,40.80
2018-08-08T12:54:21.885Z,41.30
2018-08-08T12:56:52.326Z,41.30
2018-08-08T12:59:22.852Z,42.10
2018-08-08T13:01:53.341Z,42.80
2018-08-08T13:04:24.417Z,43.10
2018-08-08T13:06:54.955Z,43.40
2018-08-08T13:09:25.503Z,44.60
2018-08-08T13:11:55.846Z,45.60
2018-08-08T13:14:26.327Z,46.60
2018-08-08T13:16:56.835Z,48.10
2018-08-08T13:19:27.285Z,49.00
2018-08-08T13:21:57.688Z,49.20
2018-08-08T13:24:28.045Z,49.20
2018-08-08T13:26:58.430Z,49.00
2018-08-08T13:29:29.006Z,49.10
2018-08-08T13:31:59.503Z,48.70
2018-08-08T13:34:29.986Z,48.30
2018-08-08T13:37:00.420Z,48.00
2018-08-08T13:39:30.745Z,48.60
2018-08-08T13:42:01.113Z,49.00
2018-08-08T13:44:31.679Z,49.50
2018-08-08T13:47:02.217Z,49.40
2018-08-08T13:49:32.452Z,49.60
2018-08-08T13:52:02.778Z,49.00
2018-08-08T13:54:33.994Z,49.10
2018-08-08T13:57:04.711Z,49.20
2018-08-08T13:59:35.244Z,48.70
2018-08-08T14:02:05.740Z,47.80
2018-08-08T14:04:36.211Z,47.90
2018-08-08T14:07:06.953Z,47.50
2018-08-08T14:09:37.901Z,47.50
2018-08-08T14:12:08.386Z,48.10
2018-08-08T14:14:38.855Z,48.60
2018-08-08T14:17:09.132Z,49.00
2018-08-08T14:19:39.696Z,47.80
2018-08-08T14:22:13.044Z,47.20
2018-08-08T14:24:43.857Z,47.30
2018-08-08T14:27:14.633Z,46.70
2018-08-08T14:29:45.185Z,46.80
2018-08-08T14:32:15.603Z,46.20
2018-08-08T14:34:45.996Z,46.30
2018-08-08T14:37:16.477Z,46.40
2018-08-08T14:39:47.046Z,45.20
2018-08-08T14:42:17.518Z,44.30
2018-08-08T14:44:48.057Z,43.20
2018-08-08T14:47:21.250Z,42.50
2018-08-08T14:49:51.732Z,42.20
2018-08-08T14:52:22.168Z,42.40
2018-08-08T14:54:52.650Z,42.60
2018-08-08T14:57:23.148Z,42.50
2018-08-08T14:59:53.499Z,42.70
2018-08-08T15:02:23.856Z,42.60
2018-08-08T15:04:54.439Z,41.40
2018-08-08T15:07:24.733Z,40.80
2018-08-08T15:09:55.129Z,40.40
2018-08-08T15:12:25.608Z,40.00
2018-08-08T15:14:56.746Z,39.80
2018-08-08T15:17:27.284Z,39.30
2018-08-08T15:19:57.975Z,38.50
2018-08-08T15:22:28.428Z,37.80
2018-08-08T15:24:58.796Z,37.40
2018-08-08T15:27:32.023Z,36.80
2018-08-08T15:30:02.421Z,36.60
2018-08-08T15:32:32.829Z,36.60
2018-08-08T15:35:03.435Z,36.90
2018-08-08T15:37:34.303Z,37.40
2018-08-08T15:40:04.760Z,38.10
2018-08-08T15:42:35.156Z,38.60
2018-08-08T15:45:07.268Z,39.00
2018-08-08T15:47:37.633Z,39.40
2018-08-08T15:50:10.566Z,39.40
2018-08-08T15:52:41.274Z,39.20
2018-08-08T15:55:12.658Z,39.30
2018-08-08T15:57:43.347Z,39.40
2018-08-08T16:00:14.553Z,39.30
2018-08-08T16:02:45.235Z,39.00
2018-08-08T16:05:15.640Z,38.50
2018-08-08T16:07:46.164Z,38.20
2018-08-08T16:10:16.604Z,37.80
2018-08-08T16:12:47.059Z,37.40
2018-08-08T16:15:17.745Z,37.00
2018-08-08T16:17:47.998Z,36.50
2018-08-08T16:20:18.419Z,36.10
2018-08-08T16:22:48.872Z,35.70
2018-08-08T16:25:19.449Z,35.40
2018-08-08T16:27:50.016Z,35.20
2018-08-08T16:30:20.262Z,34.90
2018-08-08T16:32:50.882Z,34.80
2018-08-08T16:35:22.092Z,34.60
2018-08-08T16:37:52.636Z,34.40
2018-08-08T16:40:23.036Z,34.20
2018-08-08T16:42:53.621Z,34.00
2018-08-08T16:45:24.194Z,33.90
2018-08-08T16:47:54.607Z,33.80
2018-08-08T16:50:25.262Z,33.80
2018-08-08T16:52:55.732Z,33.70
2018-08-08T16:55:26.202Z,33.50
2018-08-08T16:57:56.798Z,33.40
2018-08-08T17:00:27.298Z,33.30
2018-08-08T17:02:57.770Z,33.20
2018-08-08T17:05:28.100Z,33.00
2018-08-08T17:07:58.926Z,32.90
2018-08-08T17:10:30.294Z,32.80
2018-08-08T17:13:00.986Z,32.70
2018-08-08T17:15:31.392Z,32.50
2018-08-08T17:18:02.051Z,32.40
2018-08-08T17:20:35.141Z,32.30
2018-08-08T17:23:05.544Z,32.20
2018-08-08T17:25:35.851Z,32.00
2018-08-08T17:28:06.332Z,31.90
2018-08-08T17:30:36.658Z,31.80
2018-08-08T17:33:07.056Z,31.70
2018-08-08T17:35:37.886Z,31.60
2018-08-08T17:38:08.266Z,31.40
2018-08-08T17:40:38.567Z,31.40
2018-08-08T17:43:09.145Z,31.30
2018-08-08T17:45:39.204Z,31.20
2018-08-08T17:48:09.756Z,31.10
2018-08-08T17:50:40.203Z,31.10
2018-08-08T17:53:10.690Z,31.00
2018-08-08T17:55:41.219Z,31.00
2018-08-08T17:58:11.716Z,30.90
2018-08-08T18:00:42.250Z,30.80
2018-08-08T18:03:12.776Z,30.70
2018-08-08T18:05:43.099Z,30.70
2018-08-08T18:08:20.496Z,30.60
2018-08-08T18:10:51.894Z,30.50
2018-08-08T18:13:22.451Z,30.50
2018-08-08T18:15:52.922Z,30.40
2018-08-08T18:18:23.214Z,30.40
2018-08-08T18:20:53.612Z,30.30
2018-08-08T18:23:24.165Z,30.20
2018-08-08T18:25:54.605Z,30.10
2018-08-08T18:28:25.193Z,30.00
2018-08-08T18:30:55.637Z,30.00
2018-08-08T18:33:26.047Z,30.00
2018-08-08T18:35:56.633Z,29.90
2018-08-08T18:38:27.099Z,29.90
2018-08-08T18:40:57.472Z,29.70
2018-08-08T18:43:27.958Z,29.70
2018-08-08T18:45:58.432Z,29.60
2018-08-08T18:48:29.032Z,29.60
2018-08-08T18:50:59.435Z,29.60
2018-08-08T18:53:30.023Z,29.50
2018-08-08T18:56:00.476Z,29.40
2018-08-08T18:58:31.160Z,29.30
2018-08-08T19:01:08.247Z,29.20
2018-08-08T19:03:38.693Z,29.20
2018-08-08T19:06:09.894Z,29.10
2018-08-08T19:08:40.304Z,28.90
2018-08-08T19:11:11.522Z,28.50
2018-08-08T19:13:41.957Z,28.10
2018-08-08T19:16:12.514Z,27.90
2018-08-08T19:18:42.948Z,27.90
2018-08-08T19:21:13.394Z,27.80
2018-08-08T19:23:43.885Z,27.70
2018-08-08T19:26:14.425Z,27.60
2018-08-08T19:28:45.062Z,27.60
2018-08-08T19:31:15.659Z,27.40
2018-08-08T19:33:46.170Z,27.30
2018-08-08T19:36:16.750Z,27.20
2018-08-08T19:38:47.102Z,26.90
2018-08-08T19:41:18.045Z,26.50
2018-08-08T19:43:48.404Z,26.20
2018-08-08T19:46:19.340Z,25.90
2018-08-08T19:48:49.695Z,25.70
2018-08-08T19:51:20.258Z,25.70
2018-08-08T19:53:50.812Z,25.40
2018-08-08T19:56:21.142Z,25.40
2018-08-08T19:58:51.580Z,25.20
2018-08-08T20:01:22.206Z,25.10
2018-08-08T20:03:53.517Z,25.10
2018-08-08T20:06:23.973Z,25.00
2018-08-08T20:08:54.410Z,25.00
2018-08-08T20:11:24.994Z,24.90
2018-08-08T20:13:55.354Z,24.80
2018-08-08T20:16:26.250Z,24.70
2018-08-08T20:18:56.741Z,24.70
2018-08-08T20:21:27.224Z,24.70
2018-08-08T20:23:57.596Z,24.70
2018-08-08T20:26:28.267Z,24.60
2018-08-08T20:28:58.841Z,24.50
2018-08-08T20:31:29.105Z,24.40
2018-08-08T20:34:00.127Z,24.50
2018-08-08T20:36:30.588Z,24.40
2018-08-08T20:39:01.015Z,24.30
2018-08-08T20:41:31.402Z,24.20
2018-08-08T20:44:02.020Z,24.30
2018-08-08T20:46:32.539Z,24.30
2018-08-08T20:49:02.798Z,24.30
2018-08-08T20:51:33.329Z,24.30
2018-08-08T20:54:03.723Z,24.30
2018-08-08T20:56:34.173Z,24.30
2018-08-08T20:59:04.680Z,24.30
2018-08-08T21:01:35.304Z,24.30
2018-08-08T21:04:05.710Z,24.20
2018-08-08T21:06:36.189Z,24.20
2018-08-08T21:09:10.173Z,24.00
2018-08-08T21:11:40.668Z,24.00
2018-08-08T21:14:11.105Z,23.90
2018-08-08T21:16:41.429Z,24.00
2018-08-08T21:19:18.510Z,24.10
2018-08-08T21:21:48.909Z,24.10
2018-08-08T21:24:19.592Z,24.10
2018-08-08T21:26:49.866Z,24.10
2018-08-08T21:29:20.317Z,24.00
2018-08-08T21:31:50.905Z,24.00
2018-08-08T21:34:21.378Z,23.90
2018-08-08T21:36:51.975Z,23.90
2018-08-08T21:39:22.559Z,24.00
2018-08-08T21:41:52.901Z,24.00
2018-08-08T21:44:23.336Z,23.90
2018-08-08T21:46:53.601Z,23.90
2018-08-08T21:49:24.276Z,23.80
2018-08-08T21:51:54.418Z,23.80
2018-08-08T21:54:41.154Z,23.80
2018-08-08T21:57:27.499Z,23.80
2018-08-08T22:00:14.196Z,23.80
2018-08-08T22:03:00.992Z,23.70
2018-08-08T22:05:47.721Z,23.60
2018-08-08T22:08:34.510Z,23.60
2018-08-08T22:11:22.069Z,23.60
2018-08-08T22:14:08.682Z,23.60
2018-08-08T22:17:55.177Z,23.60
2018-08-08T22:20:25.575Z,23.50
2018-08-08T22:22:56.021Z,23.40
2018-08-08T22:25:26.621Z,23.40
2018-08-08T22:27:57.200Z,23.40
2018-08-08T22:30:27.370Z,23.40
2018-08-08T22:32:57.895Z,23.40
2018-08-08T22:35:28.138Z,23.50
2018-08-08T22:37:58.594Z,23.50
2018-08-08T22:40:29.244Z,23.40
2018-08-08T22:43:00.104Z,23.30
2018-08-08T22:45:30.331Z,23.30
2018-08-08T22:48:00.878Z,23.30
2018-08-08T22:50:31.321Z,23.30
2018-08-08T22:53:01.902Z,23.20
2018-08-08T22:55:32.386Z,23.20
2018-08-08T22:58:02.839Z,23.20
2018-08-08T23:00:33.234Z,23.20
2018-08-08T23:03:03.547Z,23.20
2018-08-08T23:05:33.945Z,23.20
2018-08-08T23:08:04.442Z,23.20
2018-08-08T23:10:35.073Z,23.20
2018-08-08T23:13:05.723Z,23.20
2018-08-08T23:15:36.018Z,23.10
2018-08-08T23:18:06.512Z,23.20
2018-08-08T23:20:37.419Z,23.00
2018-08-08T23:23:07.811Z,23.00
2018-08-08T23:25:38.304Z,23.10
2018-08-08T23:28:08.900Z,23.10
2018-08-08T23:30:39.366Z,23.00
2018-08-08T23:33:09.805Z,23.10
2018-08-08T23:35:40.239Z,23.00
2018-08-08T23:38:10.683Z,23.10
2018-08-08T23:40:41.195Z,22.90
2018-08-08T23:43:11.757Z,22.90
2018-08-08T23:45:42.131Z,22.90
2018-08-08T23:48:12.822Z,22.90
2018-08-08T23:50:43.281Z,22.80
2018-08-08T23:53:13.635Z,22.80
2018-08-08T23:55:44.472Z,22.80
2018-08-08T23:58:15.020Z,22.70
